Time;durP1;ratioP1;P1;durP2;ratioP2;P2;SDS_P1;SDS_P2;PMS_P1;PMS_P2;Temp;Humidity;BMP_temperature;BMP_pressure;BME280_temperature;BME280_humidity;BME280_pressure;Samples;Min_cycle;Max_cycle;Signal;HPM_P1;HPM_P2
2023/04/21 07:22:29;;;;;;;;;66.25;53.00;;;;;;;;4706123;26;11966;-74
2023/04/21 07:24:59;;;;;;;;;76.75;59.00;;;;;;;;5044857;28;11597;-75
2023/04/21 07:27:26;;;;;;;;;63.50;50.75;;;;;;;;5048082;28;12412;-75
2023/04/21 07:29:55;;;;;;;;;59.50;49.50;;;;;;;;5049039;28;11607;-76
2023/04/21 07:32:24;;;;;;;;;59.25;48.75;;;;;;;;5046245;28;11553;-76
2023/04/21 07:34:51;;;;;;;;;65.25;51.25;;;;;;;;5046780;28;11640;-78
2023/04/21 07:37:19;;;;;;;;;68.25;54.50;;;;;;;;5049201;28;11673;-77
2023/04/21 07:39:47;;;;;;;;;56.25;46.00;;;;;;;;5048371;28;11594;-76
2023/04/21 07:42:15;;;;;;;;;63.25;51.00;;;;;;;;5056413;28;11579;-78
2023/04/21 07:44:42;;;;;;;;;61.00;51.00;;;;;;;;5046916;28;11606;-78
2023/04/21 07:47:09;;;;;;;;;35.75;33.50;;;;;;;;5047451;28;11620;-77
2023/04/21 07:49:36;;;;;;;;;44.25;38.00;;;;;;;;5043573;28;12381;-77
2023/04/21 07:52:04;;;;;;;;;28.00;26.00;;;;;;;;5051812;28;11581;-76
2023/04/21 07:54:31;;;;;;;;;25.25;23.25;;;;;;;;5048733;28;11678;-77
2023/04/21 07:57:00;;;;;;;;;31.50;28.75;;;;;;;;5050833;28;11605;-82
2023/04/21 07:59:27;;;;;;;;;30.50;22.75;;;;;;;;5049483;28;11535;-77
2023/04/21 08:01:55;;;;;;;;;37.50;32.00;;;;;;;;5039181;28;11514;-78
2023/04/21 08:04:22;;;;;;;;;25.25;22.75;;;;;;;;5049334;28;11565;-75
2023/04/21 08:06:49;;;;;;;;;22.25;20.25;;;;;;;;5045870;28;11534;-75
2023/04/21 08:09:16;;;;;;;;;22.50;20.75;;;;;;;;5047102;28;11533;-76
2023/04/21 08:11:44;;;;;;;;;17.75;17.75;;;;;;;;5049130;28;11649;-75
2023/04/21 08:14:12;;;;;;;;;23.50;21.00;;;;;;;;5050402;28;11510;-81
2023/04/21 08:16:41;;;;;;;;;21.25;18.00;;;;;;;;5052973;28;11680;-80
2023/04/21 08:19:08;;;;;;;;;19.50;18.00;;;;;;;;5054752;28;11640;-80
2023/04/21 08:21:36;;;;;;;;;21.00;17.00;;;;;;;;5053242;28;11517;-79
2023/04/21 08:24:03;;;;;;;;;26.50;26.25;;;;;;;;5053773;28;12398;-80
2023/04/21 08:26:32;;;;;;;;;19.00;19.00;;;;;;;;5054296;28;11537;-79
2023/04/21 08:29:00;;;;;;;;;20.00;18.00;;;;;;;;5053845;28;11540;-79
2023/04/21 08:31:28;;;;;;;;;24.75;23.25;;;;;;;;5050427;28;11494;-80
2023/04/21 08:33:56;;;;;;;;;19.25;19.25;;;;;;;;5041211;28;11543;-79
2023/04/21 08:36:23;;;;;;;;;17.75;17.75;;;;;;;;5052232;28;11516;-79
2023/04/21 08:38:51;;;;;;;;;12.50;12.25;;;;;;;;5056754;28;11462;-79
2023/04/21 08:41:18;;;;;;;;;16.00;16.00;;;;;;;;5057597;28;11304;-77
2023/04/21 08:43:45;;;;;;;;;20.50;18.50;;;;;;;;5049920;28;11267;-77
2023/04/21 08:46:13;;;;;;;;;16.75;16.00;;;;;;;;5049875;28;11458;-78
2023/04/21 08:48:41;;;;;;;;;20.25;17.75;;;;;;;;5062435;28;11309;-76
2023/04/21 08:51:10;;;;;;;;;22.25;20.25;;;;;;;;5054201;28;11299;-77
2023/04/21 08:53:37;;;;;;;;;21.00;19.00;;;;;;;;5049470;28;11137;-77
2023/04/21 08:56:05;;;;;;;;;22.25;20.75;;;;;;;;5049525;28;11060;-77
2023/04/21 08:58:32;;;;;;;;;18.75;18.75;;;;;;;;5050401;28;11524;-77
2023/04/21 09:00:59;;;;;;;;;23.25;23.00;;;;;;;;5049244;28;11078;-78
2023/04/21 09:03:28;;;;;;;;;19.00;17.00;;;;;;;;5049915;28;10976;-78
2023/04/21 09:06:01;;;;;;;;;20.50;20.50;;;;;;;;5049883;28;10966;-77
2023/04/21 09:08:29;;;;;;;;;21.75;21.75;;;;;;;;5049529;28;11150;-76
2023/04/21 09:10:58;;;;;;;;;20.25;19.00;;;;;;;;5049470;28;11131;-78
2023/04/21 09:13:30;;;;;;;;;22.00;20.50;;;;;;;;5049443;28;10891;-77
2023/04/21 09:15:58;;;;;;;;;22.50;18.25;;;;;;;;5049130;28;11027;-76
2023/04/21 09:18:26;;;;;;;;;19.75;19.50;;;;;;;;5049688;28;10720;-75
2023/04/21 09:21:07;;;;;;;;;16.50;16.50;;;;;;;;5048960;28;11522;-74
2023/04/21 09:23:43;;;;;;;;;20.75;20.75;;;;;;;;5041353;28;10603;-75
2023/04/21 09:26:11;;;;;;;;;17.75;17.75;;;;;;;;5048937;28;10890;-77
2023/04/21 09:28:42;;;;;;;;;16.75;16.75;;;;;;;;5048945;28;10810;-77
2023/04/21 09:31:15;;;;;;;;;16.75;15.50;;;;;;;;5049018;28;10781;-75
2023/04/21 09:33:46;;;;;;;;;35.25;33.50;;;;;;;;5042092;28;10889;-78
2023/04/21 09:36:20;;;;;;;;;22.00;20.25;;;;;;;;5049995;28;11531;-76
2023/04/21 09:39:06;;;;;;;;;20.75;18.00;;;;;;;;5048988;28;12114;-75
2023/04/21 09:41:33;;;;;;;;;17.50;16.50;;;;;;;;5044068;28;10936;-75
2023/04/21 09:44:03;;;;;;;;;21.25;18.75;;;;;;;;5049339;28;10738;-74
2023/04/21 09:46:32;;;;;;;;;19.25;15.25;;;;;;;;5048886;28;11550;-76
2023/04/21 09:49:01;;;;;;;;;21.50;20.00;;;;;;;;5048660;28;10684;-77
2023/04/21 09:51:31;;;;;;;;;18.50;16.50;;;;;;;;5048341;28;10686;-74
2023/04/21 09:54:00;;;;;;;;;20.00;18.00;;;;;;;;5049264;28;11350;-74
2023/04/21 09:56:29;;;;;;;;;20.25;18.50;;;;;;;;5049041;28;10595;-75
2023/04/21 09:58:59;;;;;;;;;22.00;21.25;;;;;;;;5050222;28;10690;-75
2023/04/21 10:01:28;;;;;;;;;18.25;18.25;;;;;;;;5048320;28;10507;-74
2023/04/21 10:03:55;;;;;;;;;14.00;14.00;;;;;;;;5050166;28;10421;-74
2023/04/21 10:06:23;;;;;;;;;17.50;15.75;;;;;;;;5049211;28;10415;-75
2023/04/21 10:08:52;;;;;;;;;15.50;15.50;;;;;;;;5049805;28;10431;-77
2023/04/21 10:11:20;;;;;;;;;28.75;26.25;;;;;;;;5039492;28;10345;-77
2023/04/21 10:13:47;;;;;;;;;15.00;15.00;;;;;;;;5049289;28;10710;-76
2023/04/21 10:16:18;;;;;;;;;17.25;14.50;;;;;;;;5049467;28;10360;-76
2023/04/21 10:18:46;;;;;;;;;21.75;21.75;;;;;;;;5050653;28;11010;-79
2023/04/21 10:21:21;;;;;;;;;20.25;19.00;;;;;;;;5050631;28;10675;-77
2023/04/21 10:23:50;;;;;;;;;19.00;17.50;;;;;;;;5050946;28;10606;-78
2023/04/21 10:26:21;;;;;;;;;17.00;17.00;;;;;;;;5050410;28;10602;-78
2023/04/21 10:28:53;;;;;;;;;18.00;18.00;;;;;;;;5050088;28;10506;-80
2023/04/21 10:31:28;;;;;;;;;19.75;19.75;;;;;;;;5062668;28;10400;-77
2023/04/21 10:34:18;;;;;;;;;20.00;17.25;;;;;;;;5048175;28;10541;-76
2023/04/21 10:37:14;;;;;;;;;22.00;22.00;;;;;;;;5057366;28;10570;-77
2023/04/21 10:39:55;;;;;;;;;21.75;21.75;;;;;;;;5018841;28;10740;-78
2023/04/21 10:42:26;;;;;;;;;21.25;20.75;;;;;;;;5042380;28;10807;-77
2023/04/21 10:45:07;;;;;;;;;21.75;21.75;;;;;;;;5050597;28;11446;-74
2023/04/21 10:47:41;;;;;;;;;23.00;22.25;;;;;;;;5050201;28;10694;-76
2023/04/21 10:50:16;;;;;;;;;22.50;20.50;;;;;;;;5047105;28;11452;-74
2023/04/21 10:52:45;;;;;;;;;22.25;21.25;;;;;;;;5047270;28;10687;-77
2023/04/21 10:55:14;;;;;;;;;23.75;22.00;;;;;;;;5050056;28;10907;-75
2023/04/21 10:57:45;;;;;;;;;25.50;23.00;;;;;;;;5050992;28;10587;-74
2023/04/21 11:00:16;;;;;;;;;22.00;21.25;;;;;;;;5049120;28;10736;-74
2023/04/21 11:02:44;;;;;;;;;24.50;21.00;;;;;;;;5050794;28;10661;-77
2023/04/21 11:05:11;;;;;;;;;28.00;26.50;;;;;;;;5049593;28;10685;-75
2023/04/21 11:07:39;;;;;;;;;37.00;33.25;;;;;;;;5050481;28;10879;-79
2023/04/21 11:10:10;;;;;;;;;34.00;32.50;;;;;;;;5049816;28;11163;-75
2023/04/21 11:12:38;;;;;;;;;30.75;28.00;;;;;;;;5046502;28;11057;-75
2023/04/21 11:15:09;;;;;;;;;31.00;27.50;;;;;;;;5043783;28;10814;-77
2023/04/21 11:17:38;;;;;;;;;30.00;27.75;;;;;;;;5055105;28;11348;-77
2023/04/21 11:20:07;;;;;;;;;28.25;27.75;;;;;;;;5054831;28;10881;-78
2023/04/21 11:22:37;;;;;;;;;30.00;27.50;;;;;;;;5039036;28;10791;-80
2023/04/21 11:25:05;;;;;;;;;26.00;26.00;;;;;;;;5051909;28;10969;-76
2023/04/21 11:27:32;;;;;;;;;25.00;23.00;;;;;;;;5039565;28;10591;-80
2023/04/21 11:30:04;;;;;;;;;31.25;31.25;;;;;;;;5049848;28;10471;-78
2023/04/21 11:32:33;;;;;;;;;36.00;30.75;;;;;;;;5057966;28;10990;-78
2023/04/21 11:35:00;;;;;;;;;35.75;29.50;;;;;;;;5051744;28;11119;-77
2023/04/21 11:37:28;;;;;;;;;31.75;29.75;;;;;;;;5049556;28;10772;-80
2023/04/21 11:39:59;;;;;;;;;32.25;30.50;;;;;;;;5044831;28;10838;-77
2023/04/21 11:42:26;;;;;;;;;24.50;23.00;;;;;;;;5050421;28;10775;-76
2023/04/21 11:44:56;;;;;;;;;23.50;23.50;;;;;;;;5052400;28;10400;-76
2023/04/21 11:47:25;;;;;;;;;25.50;25.50;;;;;;;;5050637;28;10442;-77
2023/04/21 11:49:56;;;;;;;;;29.75;28.75;;;;;;;;5055257;28;10795;-82
2023/04/21 11:52:25;;;;;;;;;33.00;33.00;;;;;;;;5052117;28;10539;-80
2023/04/21 11:54:56;;;;;;;;;25.50;24.25;;;;;;;;5066356;28;10585;-81
2023/04/21 11:57:25;;;;;;;;;24.25;22.50;;;;;;;;5056764;28;10410;-81
2023/04/21 11:59:52;;;;;;;;;30.75;29.50;;;;;;;;5054790;28;10212;-82
2023/04/21 12:02:25;;;;;;;;;24.25;24.25;;;;;;;;5055266;28;10474;-78
2023/04/21 12:05:04;;;;;;;;;23.25;19.75;;;;;;;;5054174;28;10272;-81
2023/04/21 12:07:32;;;;;;;;;29.50;25.50;;;;;;;;5057579;28;10097;-81
2023/04/21 12:10:00;;;;;;;;;26.25;25.25;;;;;;;;5056666;28;9975;-85
2023/04/21 12:12:28;;;;;;;;;28.00;28.00;;;;;;;;5059410;28;9940;-82
2023/04/21 12:14:55;;;;;;;;;26.50;24.75;;;;;;;;5056651;28;9881;-82
2023/04/21 12:17:23;;;;;;;;;26.25;25.00;;;;;;;;5059969;28;9727;-78
2023/04/21 12:19:50;;;;;;;;;26.50;23.75;;;;;;;;5061185;28;9887;-81
2023/04/21 12:22:19;;;;;;;;;23.75;22.50;;;;;;;;5055676;28;9831;-76
2023/04/21 12:24:46;;;;;;;;;26.00;23.25;;;;;;;;5055468;28;9863;-76
2023/04/21 12:27:14;;;;;;;;;26.25;25.75;;;;;;;;5054532;28;9701;-76
2023/04/21 12:29:41;;;;;;;;;26.50;24.75;;;;;;;;5063290;28;9728;-80
2023/04/21 12:32:09;;;;;;;;;23.00;22.50;;;;;;;;5052149;28;9672;-82
2023/04/21 12:34:36;;;;;;;;;22.50;22.25;;;;;;;;5049177;28;9793;-76
2023/04/21 12:37:04;;;;;;;;;18.75;18.75;;;;;;;;5049660;28;9567;-74
2023/04/21 12:39:33;;;;;;;;;20.25;20.25;;;;;;;;5047491;28;9472;-77
2023/04/21 12:42:01;;;;;;;;;29.00;27.75;;;;;;;;5049349;28;9466;-77
2023/04/21 12:44:28;;;;;;;;;23.67;23.67;;;;;;;;5053921;28;9624;-75
2023/04/21 12:46:56;;;;;;;;;24.33;20.67;;;;;;;;5052303;28;9291;-78
2023/04/21 12:49:23;;;;;;;;;23.00;23.00;;;;;;;;5054342;28;9387;-79
2023/04/21 12:51:50;;;;;;;;;21.67;21.33;;;;;;;;5062065;28;9107;-82
2023/04/21 12:54:18;;;;;;;;;19.67;19.67;;;;;;;;5053803;28;9162;-79
2023/04/21 12:56:47;;;;;;;;;18.00;18.00;;;;;;;;5051586;28;8943;-77
2023/04/21 12:59:14;;;;;;;;;23.00;22.67;;;;;;;;5053900;28;9206;-78
2023/04/21 13:01:42;;;;;;;;;25.33;25.33;;;;;;;;5050043;28;9197;-79
2023/04/21 13:04:10;;;;;;;;;23.00;21.33;;;;;;;;5053992;28;9251;-77
2023/04/21 13:06:39;;;;;;;;;25.00;22.00;;;;;;;;5051603;28;9390;-80
2023/04/21 13:09:07;;;;;;;;;28.00;26.33;;;;;;;;5051476;28;9387;-81
2023/04/21 13:11:34;;;;;;;;;22.00;22.00;;;;;;;;5042726;28;9627;-79
2023/04/21 13:14:03;;;;;;;;;22.33;20.67;;;;;;;;5049106;28;9346;-84
2023/04/21 13:16:31;;;;;;;;;20.33;20.33;;;;;;;;5049654;28;9196;-78
2023/04/21 13:18:59;;;;;;;;;22.33;22.33;;;;;;;;5049771;28;10047;-75
2023/04/21 13:21:26;;;;;;;;;22.00;19.33;;;;;;;;5049055;28;9030;-77
2023/04/21 13:23:55;;;;;;;;;35.50;34.00;;;;;;;;5049234;28;9212;-79
2023/04/21 13:26:22;;;;;;;;;18.50;17.00;;;;;;;;5050230;28;9681;-81
2023/04/21 13:28:49;;;;;;;;;14.00;14.00;;;;;;;;5039688;28;8885;-82
2023/04/21 13:31:18;;;;;;;;;17.75;16.25;;;;;;;;5049325;28;8917;-79
2023/04/21 13:33:45;;;;;;;;;16.00;16.00;;;;;;;;5049572;28;9004;-76
2023/04/21 13:36:12;;;;;;;;;19.00;14.50;;;;;;;;5049184;28;8877;-80
2023/04/21 13:38:40;;;;;;;;;15.00;14.50;;;;;;;;5048793;28;8970;-80
2023/04/21 13:41:07;;;;;;;;;12.75;12.75;;;;;;;;5048270;28;8877;-79
2023/04/21 13:43:34;;;;;;;;;13.75;13.75;;;;;;;;5053177;28;8857;-78
2023/04/21 13:46:02;;;;;;;;;10.50;10.50;;;;;;;;5052892;28;8857;-84
2023/04/21 13:48:30;;;;;;;;;13.00;13.00;;;;;;;;5051250;28;8866;-78
2023/04/21 13:50:58;;;;;;;;;18.00;18.00;;;;;;;;5052282;28;8857;-80
2023/04/21 13:53:25;;;;;;;;;15.75;13.00;;;;;;;;5061430;28;8964;-83
2023/04/21 13:55:53;;;;;;;;;18.25;16.75;;;;;;;;5052682;28;8850;-80
2023/04/21 13:58:20;;;;;;;;;13.50;9.50;;;;;;;;5051466;28;8869;-86
2023/04/21 14:00:48;;;;;;;;;12.25;9.00;;;;;;;;5052964;28;9262;-79
2023/04/21 14:03:27;;;;;;;;;11.25;11.25;;;;;;;;5052912;28;8872;-84
2023/04/21 14:05:56;;;;;;;;;15.00;15.00;;;;;;;;5054571;28;8843;-82
2023/04/21 14:08:23;;;;;;;;;15.25;14.50;;;;;;;;5049011;28;8845;-82
2023/04/21 14:10:51;;;;;;;;;13.00;12.50;;;;;;;;5060244;28;9016;-81
2023/04/21 14:13:18;;;;;;;;;11.50;11.00;;;;;;;;5056725;28;8983;-78
2023/04/21 14:15:45;;;;;;;;;18.50;18.50;;;;;;;;5051362;28;8843;-78
2023/04/21 14:18:12;;;;;;;;;13.25;13.25;;;;;;;;5059081;28;8877;-81
2023/04/21 14:20:39;;;;;;;;;14.50;14.50;;;;;;;;5053761;28;9657;-78
2023/04/21 14:23:08;;;;;;;;;10.00;10.00;;;;;;;;5054422;28;9697;-81
2023/04/21 14:25:35;;;;;;;;;10.75;10.75;;;;;;;;5054269;28;8964;-84
2023/04/21 14:28:05;;;;;;;;;13.25;13.25;;;;;;;;5055028;28;8857;-84
2023/04/21 14:30:33;;;;;;;;;10.25;9.00;;;;;;;;5046700;28;8764;-78
2023/04/21 14:33:01;;;;;;;;;13.25;11.25;;;;;;;;5053744;28;8924;-80
2023/04/21 14:35:28;;;;;;;;;16.00;14.75;;;;;;;;5052834;28;8889;-75
2023/04/21 14:37:55;;;;;;;;;14.25;14.25;;;;;;;;5055800;28;8835;-79
2023/04/21 14:40:24;;;;;;;;;12.75;12.00;;;;;;;;5047563;28;8865;-75
2023/04/21 14:42:51;;;;;;;;;13.75;13.75;;;;;;;;5036207;28;8864;-75
2023/04/21 14:45:18;;;;;;;;;12.25;12.25;;;;;;;;5049697;28;8865;-76
2023/04/21 14:47:46;;;;;;;;;11.25;11.25;;;;;;;;5051491;28;9019;-76
2023/04/21 14:50:13;;;;;;;;;15.25;13.50;;;;;;;;5049561;28;8873;-81
2023/04/21 14:52:40;;;;;;;;;10.50;8.50;;;;;;;;5051924;28;8864;-76
2023/04/21 14:55:08;;;;;;;;;14.50;13.00;;;;;;;;5050388;28;8845;-76
2023/04/21 14:57:36;;;;;;;;;10.25;10.25;;;;;;;;5052321;28;8847;-76
2023/04/21 15:00:05;;;;;;;;;12.00;11.00;;;;;;;;5050017;28;8892;-79
2023/04/21 15:02:32;;;;;;;;;14.50;11.00;;;;;;;;5051284;28;8819;-78
2023/04/21 15:05:00;;;;;;;;;11.75;11.75;;;;;;;;5047281;28;8857;-82
2023/04/21 15:07:27;;;;;;;;;10.25;10.25;;;;;;;;5052543;28;8930;-79
2023/04/21 15:09:54;;;;;;;;;12.50;12.50;;;;;;;;5050017;28;8887;-82
2023/04/21 15:12:22;;;;;;;;;14.00;14.00;;;;;;;;5052099;28;8836;-79
2023/04/21 15:14:51;;;;;;;;;13.00;11.75;;;;;;;;5050112;28;8887;-82
2023/04/21 15:17:19;;;;;;;;;12.25;12.25;;;;;;;;5051867;28;8885;-83
2023/04/21 15:19:47;;;;;;;;;17.25;14.50;;;;;;;;5049347;28;8850;-80
2023/04/21 15:22:14;;;;;;;;;10.25;10.25;;;;;;;;5051848;28;8846;-76
2023/04/21 15:24:41;;;;;;;;;11.00;11.00;;;;;;;;5050934;28;8834;-77
2023/04/21 15:27:08;;;;;;;;;12.50;12.50;;;;;;;;5056684;28;8943;-79
2023/04/21 15:29:35;;;;;;;;;15.00;13.00;;;;;;;;5053449;28;8858;-80
2023/04/21 15:32:04;;;;;;;;;13.00;11.25;;;;;;;;5053092;28;8794;-84
2023/04/21 15:34:31;;;;;;;;;12.25;11.00;;;;;;;;5054075;28;8878;-81
2023/04/21 15:37:00;;;;;;;;;12.75;12.75;;;;;;;;5056034;28;8868;-79
2023/04/21 15:39:27;;;;;;;;;12.75;12.75;;;;;;;;5052489;28;8938;-83
2023/04/21 15:41:55;;;;;;;;;10.00;10.00;;;;;;;;5052551;28;8954;-80
2023/04/21 15:44:22;;;;;;;;;11.00;11.00;;;;;;;;5051731;28;8854;-82
2023/04/21 15:46:50;;;;;;;;;11.00;11.00;;;;;;;;5054382;28;8917;-84
2023/04/21 15:49:18;;;;;;;;;13.25;11.75;;;;;;;;5049031;28;8878;-83
2023/04/21 15:51:46;;;;;;;;;13.00;11.50;;;;;;;;5043118;28;8882;-81
2023/04/21 15:54:13;;;;;;;;;11.00;11.00;;;;;;;;5054451;28;8885;-86
2023/04/21 15:56:40;;;;;;;;;7.75;7.75;;;;;;;;5057153;28;8861;-87
2023/04/21 15:59:07;;;;;;;;;10.50;10.00;;;;;;;;5056041;28;8980;-89
2023/04/21 16:01:34;;;;;;;;;6.00;6.00;;;;;;;;5056846;28;8936;-77
2023/04/21 16:04:02;;;;;;;;;6.00;6.00;;;;;;;;5066794;28;8965;-85
2023/04/21 16:06:34;;;;;;;;;11.50;10.25;;;;;;;;5060432;28;8853;-84
2023/04/21 16:09:01;;;;;;;;;9.00;9.00;;;;;;;;5056953;28;8860;-82
2023/04/21 16:11:29;;;;;;;;;7.00;7.00;;;;;;;;5062169;28;8938;-81
2023/04/21 16:13:56;;;;;;;;;8.00;6.75;;;;;;;;5064759;28;8950;-82
2023/04/21 16:16:23;;;;;;;;;7.75;7.75;;;;;;;;5059869;28;8861;-83
2023/04/21 16:18:50;;;;;;;;;8.25;8.25;;;;;;;;5062171;28;8889;-76
2023/04/21 16:21:18;;;;;;;;;8.50;8.50;;;;;;;;5059480;28;8829;-78
2023/04/21 16:23:46;;;;;;;;;9.25;9.25;;;;;;;;5062038;28;8869;-77
2023/04/21 16:26:14;;;;;;;;;10.00;10.00;;;;;;;;5060975;28;8839;-82
2023/04/21 16:28:41;;;;;;;;;10.00;10.00;;;;;;;;5061754;28;8851;-84
2023/04/21 16:31:08;;;;;;;;;8.33;8.33;;;;;;;;5061003;28;8833;-80
2023/04/21 16:33:35;;;;;;;;;11.50;11.50;;;;;;;;5060919;28;8958;-80
2023/04/21 16:36:03;;;;;;;;;7.00;7.00;;;;;;;;5057471;28;8845;-80
2023/04/21 16:38:30;;;;;;;;;11.50;10.50;;;;;;;;5057388;28;8862;-76
2023/04/21 16:40:58;;;;;;;;;8.00;8.00;;;;;;;;5051836;28;8893;-79
2023/04/21 16:43:26;;;;;;;;;12.75;10.75;;;;;;;;5048132;28;8857;-78
2023/04/21 16:45:53;;;;;;;;;10.50;9.00;;;;;;;;5054272;28;8842;-79
2023/04/21 16:48:20;;;;;;;;;9.50;8.50;;;;;;;;5057108;28;8885;-81
2023/04/21 16:50:47;;;;;;;;;11.25;9.50;;;;;;;;5053941;28;8853;-77
2023/04/21 16:53:15;;;;;;;;;8.75;8.75;;;;;;;;5056007;28;8858;-79
2023/04/21 16:55:42;;;;;;;;;12.50;11.00;;;;;;;;5053924;28;8955;-78
2023/04/21 16:58:11;;;;;;;;;10.00;10.00;;;;;;;;5055729;28;8965;-79
2023/04/21 17:00:38;;;;;;;;;7.25;7.25;;;;;;;;5054130;28;8782;-81
2023/04/21 17:03:05;;;;;;;;;10.00;10.00;;;;;;;;5055317;28;8853;-79
2023/04/21 17:05:33;;;;;;;;;9.00;9.00;;;;;;;;5054582;28;8841;-80
2023/04/21 17:08:00;;;;;;;;;10.50;8.75;;;;;;;;5054542;28;8850;-78
2023/04/21 17:10:30;;;;;;;;;9.50;8.50;;;;;;;;5053935;28;9571;-82
2023/04/21 17:12:57;;;;;;;;;10.00;10.00;;;;;;;;5049118;28;9010;-80
2023/04/21 17:15:29;;;;;;;;;9.00;9.00;;;;;;;;5044181;28;8854;-81
2023/04/21 17:17:56;;;;;;;;;12.75;10.00;;;;;;;;5053215;28;8858;-79
2023/04/21 17:20:23;;;;;;;;;11.00;9.00;;;;;;;;5056085;28;8989;-78
2023/04/21 17:22:51;;;;;;;;;11.00;9.50;;;;;;;;5052856;28;8903;-81
2023/04/21 17:25:18;;;;;;;;;6.25;6.25;;;;;;;;5055709;28;8894;-84
2023/04/21 17:27:45;;;;;;;;;12.50;12.50;;;;;;;;5052384;28;9676;-82
2023/04/21 17:30:13;;;;;;;;;10.75;10.75;;;;;;;;5054707;28;8859;-81
2023/04/21 17:32:42;;;;;;;;;10.25;10.25;;;;;;;;5052077;28;8968;-80
2023/04/21 17:35:11;;;;;;;;;14.75;13.75;;;;;;;;5055196;28;8953;-80
2023/04/21 17:37:38;;;;;;;;;10.00;10.00;;;;;;;;5051900;28;9683;-80
2023/04/21 17:40:08;;;;;;;;;11.25;11.25;;;;;;;;5049669;28;8864;-81
2023/04/21 17:42:35;;;;;;;;;10.50;10.50;;;;;;;;5051090;28;8866;-80
2023/04/21 17:45:04;;;;;;;;;12.50;10.75;;;;;;;;5037281;28;8877;-81
2023/04/21 17:47:32;;;;;;;;;11.25;10.25;;;;;;;;5054716;28;8880;-81
2023/04/21 17:50:00;;;;;;;;;11.25;10.75;;;;;;;;5061778;28;8901;-81
2023/04/21 17:52:29;;;;;;;;;13.50;11.75;;;;;;;;5057214;28;8861;-83
2023/04/21 17:54:56;;;;;;;;;11.25;11.25;;;;;;;;5060516;28;8893;-79
2023/04/21 17:57:24;;;;;;;;;10.75;9.75;;;;;;;;5056098;28;9003;-80
2023/04/21 17:59:51;;;;;;;;;8.00;8.00;;;;;;;;5048935;28;8861;-81
2023/04/21 18:02:18;;;;;;;;;14.33;13.00;;;;;;;;5048467;28;8802;-78
2023/04/21 18:04:46;;;;;;;;;10.33;10.33;;;;;;;;5048362;28;8941;-76
2023/04/21 18:07:14;;;;;;;;;13.33;12.00;;;;;;;;5048459;28;8961;-80
2023/04/21 18:09:42;;;;;;;;;12.33;11.00;;;;;;;;5048106;28;9126;-80
2023/04/21 18:12:09;;;;;;;;;10.00;10.00;;;;;;;;5047992;28;9893;-79
2023/04/21 18:14:37;;;;;;;;;10.67;9.33;;;;;;;;5048262;28;9326;-78
2023/04/21 18:17:04;;;;;;;;;8.67;8.67;;;;;;;;5055068;28;9182;-83
2023/04/21 18:19:32;;;;;;;;;10.00;10.00;;;;;;;;5048137;28;9569;-79
2023/04/21 18:21:59;;;;;;;;;11.00;11.00;;;;;;;;5047745;28;9588;-78
2023/04/21 18:24:28;;;;;;;;;11.00;11.00;;;;;;;;5048817;28;9461;-79
2023/04/21 18:26:55;;;;;;;;;13.00;13.00;;;;;;;;5051112;28;9421;-78
2023/04/21 18:29:23;;;;;;;;;13.00;11.67;;;;;;;;5054536;28;9410;-80
2023/04/21 18:31:50;;;;;;;;;12.33;12.00;;;;;;;;5049440;28;9208;-78
2023/04/21 18:34:18;;;;;;;;;12.75;12.75;;;;;;;;5055541;28;9268;-79
2023/04/21 18:36:45;;;;;;;;;13.00;13.00;;;;;;;;5049326;28;9565;-82
2023/04/21 18:39:12;;;;;;;;;10.00;10.00;;;;;;;;5050736;28;9493;-85
2023/04/21 18:41:47;;;;;;;;;9.50;9.50;;;;;;;;5048057;28;9497;-82
2023/04/21 18:44:14;;;;;;;;;10.50;10.50;;;;;;;;5048624;28;9502;-84
2023/04/21 18:46:42;;;;;;;;;11.25;9.25;;;;;;;;5037853;28;9559;-84
2023/04/21 18:49:09;;;;;;;;;8.25;8.25;;;;;;;;5048261;28;9721;-84
2023/04/21 18:51:37;;;;;;;;;10.75;10.75;;;;;;;;5050764;28;9795;-84
2023/04/21 18:54:05;;;;;;;;;15.00;12.50;;;;;;;;5049032;28;9768;-85
2023/04/21 18:56:33;;;;;;;;;10.00;10.00;;;;;;;;5052178;28;9958;-85
2023/04/21 18:59:02;;;;;;;;;9.00;9.00;;;;;;;;5049839;28;10053;-85
2023/04/21 19:01:29;;;;;;;;;15.25;12.25;;;;;;;;5050557;28;10188;-83
2023/04/21 19:03:58;;;;;;;;;14.25;12.75;;;;;;;;5054131;28;10188;-84
2023/04/21 19:06:26;;;;;;;;;12.25;12.25;;;;;;;;5051637;28;10242;-85
2023/04/21 19:08:54;;;;;;;;;8.00;8.00;;;;;;;;5054017;28;10369;-85
2023/04/21 19:11:21;;;;;;;;;14.00;14.00;;;;;;;;5052037;28;10418;-85
2023/04/21 19:13:48;;;;;;;;;13.00;11.00;;;;;;;;5050816;28;10496;-84
2023/04/21 19:16:17;;;;;;;;;9.25;9.25;;;;;;;;5048328;28;10511;-85
2023/04/21 19:18:47;;;;;;;;;12.75;12.75;;;;;;;;5049226;28;10419;-85
2023/04/21 19:21:17;;;;;;;;;10.50;8.25;;;;;;;;5048783;28;10597;-86
2023/04/21 19:23:44;;;;;;;;;10.25;10.25;;;;;;;;5047563;28;10626;-84
2023/04/21 19:26:13;;;;;;;;;11.50;11.50;;;;;;;;5051034;28;10563;-83
2023/04/21 19:28:40;;;;;;;;;11.00;11.00;;;;;;;;5052814;28;10569;-84
2023/04/21 19:31:08;;;;;;;;;9.75;9.75;;;;;;;;5052148;28;10444;-84
2023/04/21 19:33:36;;;;;;;;;13.25;11.75;;;;;;;;5056085;28;10737;-84
2023/04/21 19:36:05;;;;;;;;;15.50;14.50;;;;;;;;5050407;28;10810;-85
2023/04/21 19:38:32;;;;;;;;;14.50;14.50;;;;;;;;5053444;28;10814;-86
2023/04/21 19:40:59;;;;;;;;;14.25;13.50;;;;;;;;5060041;28;10796;-84
2023/04/21 19:43:30;;;;;;;;;14.50;14.50;;;;;;;;5063378;28;10966;-85
2023/04/21 19:46:00;;;;;;;;;15.75;14.00;;;;;;;;5056579;28;10974;-86
2023/04/21 19:48:27;;;;;;;;;12.25;12.25;;;;;;;;5048897;28;11030;-85
2023/04/21 19:50:56;;;;;;;;;15.75;15.75;;;;;;;;5048972;28;11047;-85
2023/04/21 19:53:23;;;;;;;;;19.75;19.75;;;;;;;;5049675;28;11067;-85
2023/04/21 19:55:51;;;;;;;;;18.25;17.00;;;;;;;;5048360;28;11227;-85
2023/04/21 19:58:18;;;;;;;;;17.75;17.50;;;;;;;;5049326;28;11381;-84
2023/04/21 20:00:46;;;;;;;;;17.75;17.25;;;;;;;;5049031;28;11583;-84
2023/04/21 20:03:13;;;;;;;;;16.00;15.25;;;;;;;;5037647;28;11506;-85
2023/04/21 20:05:40;;;;;;;;;21.00;18.00;;;;;;;;5049295;28;11145;-85
2023/04/21 20:08:09;;;;;;;;;18.25;17.75;;;;;;;;5049010;28;11320;-86
2023/04/21 20:10:42;;;;;;;;;16.25;16.25;;;;;;;;5051700;28;11289;-85
2023/04/21 20:13:10;;;;;;;;;13.00;13.00;;;;;;;;5051307;28;11326;-84
2023/04/21 20:15:38;;;;;;;;;19.75;17.00;;;;;;;;5051290;28;11294;-86
2023/04/21 20:18:06;;;;;;;;;23.00;23.00;;;;;;;;5051866;28;11522;-85
2023/04/21 20:20:33;;;;;;;;;25.75;23.75;;;;;;;;5052809;28;12240;-86
2023/04/21 20:23:01;;;;;;;;;17.50;17.50;;;;;;;;5052424;28;11522;-85
2023/04/21 20:25:32;;;;;;;;;18.75;18.75;;;;;;;;5054050;28;11536;-85
2023/04/21 20:28:00;;;;;;;;;18.50;18.25;;;;;;;;5052491;28;11525;-85
2023/04/21 20:30:30;;;;;;;;;22.00;20.25;;;;;;;;5052869;28;11520;-86
2023/04/21 20:32:57;;;;;;;;;21.00;18.75;;;;;;;;5052085;28;11653;-86
2023/04/21 20:35:25;;;;;;;;;19.00;18.00;;;;;;;;5051704;28;11537;-85
2023/04/21 20:37:52;;;;;;;;;26.25;22.00;;;;;;;;5050779;28;11534;-85
2023/04/21 20:40:20;;;;;;;;;24.75;23.25;;;;;;;;5049490;28;11556;-85
2023/04/21 20:42:50;;;;;;;;;24.75;23.50;;;;;;;;5053573;28;11782;-85
2023/04/21 20:45:18;;;;;;;;;27.75;27.75;;;;;;;;5054107;28;11559;-85
2023/04/21 20:47:45;;;;;;;;;22.75;21.00;;;;;;;;5053311;28;11595;-85
2023/04/21 20:50:13;;;;;;;;;29.00;27.75;;;;;;;;5050816;28;11546;-86
2023/04/21 20:52:40;;;;;;;;;25.75;25.75;;;;;;;;5056566;28;11496;-85
2023/04/21 20:55:08;;;;;;;;;29.25;27.25;;;;;;;;5053485;28;11559;-85
2023/04/21 20:57:35;;;;;;;;;26.75;25.25;;;;;;;;5053632;28;11644;-86
2023/04/21 21:00:05;;;;;;;;;28.50;26.25;;;;;;;;5053910;28;11547;-85
2023/04/21 21:02:33;;;;;;;;;26.25;26.25;;;;;;;;5053006;28;12349;-85
2023/04/21 21:05:00;;;;;;;;;19.00;19.00;;;;;;;;5053644;28;11521;-85
2023/04/21 21:07:27;;;;;;;;;24.25;24.25;;;;;;;;5056297;28;11529;-85
2023/04/21 21:09:55;;;;;;;;;24.00;21.75;;;;;;;;5053709;28;11673;-85
2023/04/21 21:12:25;;;;;;;;;26.75;25.50;;;;;;;;5045265;28;11596;-85
2023/04/21 21:14:53;;;;;;;;;24.50;24.50;;;;;;;;5053686;28;11527;-85
2023/04/21 21:17:21;;;;;;;;;20.25;20.25;;;;;;;;5053896;28;11550;-84
2023/04/21 21:19:49;;;;;;;;;26.25;24.25;;;;;;;;5054735;28;11546;-83
2023/04/21 21:22:16;;;;;;;;;19.50;19.50;;;;;;;;5043966;28;11487;-84
2023/04/21 21:24:43;;;;;;;;;13.75;12.75;;;;;;;;5053221;28;11524;-85
2023/04/21 21:27:11;;;;;;;;;20.25;20.00;;;;;;;;5059275;28;11562;-84
2023/04/21 21:29:41;;;;;;;;;14.75;14.25;;;;;;;;5067883;28;11514;-85
2023/04/21 21:32:08;;;;;;;;;16.00;16.00;;;;;;;;5061782;28;11608;-84
2023/04/21 21:34:37;;;;;;;;;17.50;16.25;;;;;;;;5064965;28;11541;-84
2023/04/21 21:37:04;;;;;;;;;19.25;16.50;;;;;;;;5051967;28;11582;-85
2023/04/21 21:39:32;;;;;;;;;19.00;19.00;;;;;;;;5048351;28;11651;-85
2023/04/21 21:42:01;;;;;;;;;24.75;20.00;;;;;;;;5048900;28;11610;-85
2023/04/21 21:44:28;;;;;;;;;20.00;20.00;;;;;;;;5044309;28;11547;-85
2023/04/21 21:46:57;;;;;;;;;21.50;19.00;;;;;;;;5050528;28;11647;-85
2023/04/21 21:49:24;;;;;;;;;23.50;23.50;;;;;;;;5050092;28;11543;-85
2023/04/21 21:51:53;;;;;;;;;22.50;22.50;;;;;;;;5049194;28;11530;-85
2023/04/21 21:54:21;;;;;;;;;24.50;21.75;;;;;;;;5049874;28;12281;-85